Lone Star Executive Airport
KCXO : now visible

Airfield :











YOU CAN JOIN US ON...

 
LOGIN :

Register | Disclaimer

   EN    FR    IT 

 









Legend :    VFR   Marginal VFR   IFR   Intensive IFR   Very Intensive IFR
Visi :
Ceiling :
>= 8 km
>= 3000ft
5 to 8 km
1000 to 3000 ft
1500m to 5 km
500 to 1000 ft
800 to 1500m
200 to 500 ft
< 800m
< 200 ft
Symbols :   Thunderstorms  Fog  Heavy snow  Heavy precipitations  Wind > 20 kt







- Airport Elevation : 245 ft


KCXO - Lone Star Executive

CURRENT METAR :
  • 162053Z 06010G17KT 10SM FEW060 34/20 A2992 RMK AO2 SLP126 T03440200 56028

EXPIRED METARs :
  • 161953Z 08009KT 10SM CLR 34/20 A2994 RMK AO2 SLP133 T03390200
  • 161853Z 11006KT 10SM FEW090 33/21 A2997 RMK AO2 SLP145 T03330211

TAF KCXO
Valid from the 16 at 21:00 until the 17 at 18:00 UTC


162108Z 1621/1718 12010KT P6SM VCTS SCT040CB SCT060
TEMPO 1621/1623 VRB15G25KT 5SM TSRA BKN040CB
FM170200 VRB03KT P6SM SCT040 BKN120
FM171200 VRB04KT P6SM FEW015 SCT020
FM171600 09008KT P6SM SCT030 BKN050
No reported NOTAMs for that airfield.



MET'MAP, your aeronautical weather chart ! - Copyright ORBIFLY December 2007 - Disclaimer

ORBIFLY MET'MAP TEAM :

Programming & Development : Alexandra Zaïnal
Concept & Development : Baudouin d'Aumeries
Co-Development & Prog : Marc-Olivier Méhu
Technical & hardware support : Manuel Goepfert

Contact : metmap@orbifly.com




SOURCES & CREDITS :

   NOAA       Earth
Advisory